Time;durP1;ratioP1;P1;durP2;ratioP2;P2;SDS_P1;SDS_P2;PMS_P1;PMS_P2;Temp;Humidity;BMP_temperature;BMP_pressure;BME280_temperature;BME280_humidity;BME280_pressure;Samples;Min_cycle;Max_cycle;Signal;HPM_P1;HPM_P2
2021/04/17 00:00:00;;;;;;;18.55;10.80;;;10.80;66.60;;;;;;9866942;29;20106;-77
2021/04/17 00:05:25;;;;;;;18.67;10.77;;;9.00;65.40;;;;;;9865103;29;20087;-76
2021/04/17 00:10:19;;;;;;;18.58;11.27;;;10.40;64.90;;;;;;9867861;29;20482;-78
2021/04/17 00:15:17;;;;;;;19.20;11.13;;;10.60;65.10;;;;;;9869636;29;20054;-77
2021/04/17 00:20:14;;;;;;;17.88;11.50;;;7.30;64.70;;;;;;9849251;29;20548;-79
2021/04/17 00:25:09;;;;;;;20.17;11.98;;;10.40;66.60;;;;;;9866655;29;20144;-77
2021/04/17 00:30:05;;;;;;;21.08;11.77;;;8.40;64.30;;;;;;9832730;29;20510;-79
2021/04/17 00:35:00;;;;;;;21.80;11.85;;;;;;;;;;9849292;29;20498;-76
2021/04/17 00:39:54;;;;;;;20.23;11.35;;;9.90;66.70;;;;;;9866495;29;20083;-77
2021/04/17 00:44:49;;;;;;;22.58;12.48;;;8.50;66.00;;;;;;9866063;29;20470;-80
2021/04/17 00:49:42;;;;;;;19.88;12.38;;;9.00;66.40;;;;;;9863513;29;20166;-79
2021/04/17 00:54:38;;;;;;;21.02;12.85;;;8.00;64.60;;;;;;9862455;29;20091;-80
2021/04/17 00:59:33;;;;;;;22.08;13.63;;;8.50;66.50;;;;;;9873687;29;20087;-80
2021/04/17 01:04:32;;;;;;;20.42;12.13;;;7.70;64.80;;;;;;9867509;29;20059;-80
2021/04/17 01:09:33;;;;;;;20.10;11.82;;;10.20;66.30;;;;;;9865635;29;20075;-79
2021/04/17 01:14:29;;;;;;;20.98;12.30;;;8.70;65.80;;;;;;9864303;29;20079;-79
2021/04/17 01:19:38;;;;;;;20.03;12.10;;;7.80;65.40;;;;;;9877777;29;20109;-78
2021/04/17 01:24:36;;;;;;;21.23;12.18;;;8.90;67.10;;;;;;9864930;29;20373;-77
2021/04/17 01:29:32;;;;;;;21.48;12.07;;;7.50;66.20;;;;;;9865303;29;20549;-78
2021/04/17 01:34:26;;;;;;;21.58;12.45;;;8.10;65.50;;;;;;9859744;29;20079;-78
2021/04/17 01:39:25;;;;;;;22.25;12.45;;;9.20;67.30;;;;;;9864810;29;20083;-77
2021/04/17 01:44:22;;;;;;;21.70;12.50;;;9.00;66.10;;;;;;9871555;29;20082;-79
2021/04/17 01:49:20;;;;;;;22.05;12.85;;;8.60;66.00;;;;;;9882943;29;20048;-77
2021/04/17 01:54:19;;;;;;;20.90;12.35;;;9.70;67.80;;;;;;9871234;29;20091;-79
2021/04/17 01:59:15;;;;;;;24.20;13.75;;;;;;;;;;9870920;29;20078;-78
2021/04/17 02:04:09;;;;;;;22.95;13.30;;;9.40;68.00;;;;;;9870951;29;20119;-78
2021/04/17 02:09:05;;;;;;;23.35;14.18;;;8.50;66.20;;;;;;9871272;29;20047;-78
2021/04/17 02:14:00;;;;;;;22.95;13.05;;;8.40;66.10;;;;;;9869882;29;20090;-78
2021/04/17 02:18:59;;;;;;;22.15;12.38;;;9.80;68.20;;;;;;9871203;29;20073;-78
2021/04/17 02:23:53;;;;;;;22.55;12.80;;;7.50;65.70;;;;;;9870537;29;20099;-78
2021/04/17 02:28:48;;;;;;;22.88;12.80;;;10.40;68.50;;;;;;9870512;29;20087;-78
2021/04/17 02:33:42;;;;;;;22.80;12.90;;;8.90;67.70;;;;;;9870430;29;20439;-78
2021/04/17 02:38:36;;;;;;;21.58;13.05;;;7.30;66.70;;;;;;9870139;29;20090;-81
2021/04/17 02:43:29;;;;;;;21.00;12.13;;;9.80;68.20;;;;;;9869471;29;20090;-79
2021/04/17 02:48:25;;;;;;;22.33;12.93;;;9.80;67.30;;;;;;9870207;29;20553;-79
2021/04/17 02:53:20;;;;;;;23.70;13.18;;;;;;;;;;9851493;29;20094;-78
2021/04/17 02:58:14;;;;;;;24.67;13.52;;;10.30;67.60;;;;;;9852309;29;20098;-78
2021/04/17 03:03:07;;;;;;;24.15;13.40;;;7.80;66.20;;;;;;9868938;29;20113;-80
2021/04/17 03:08:03;;;;;;;21.20;12.55;;;;;;;;;;9868557;29;20079;-79
2021/04/17 03:12:57;;;;;;;22.02;12.30;;;10.30;69.20;;;;;;9868351;29;20048;-79
2021/04/17 03:17:51;;;;;;;22.33;12.60;;;;;;;;;;9868026;29;20089;-79
2021/04/17 03:22:45;;;;;;;26.10;12.63;;;8.30;67.00;;;;;;9851301;29;20075;-79
2021/04/17 03:27:41;;;;;;;22.88;12.65;;;8.20;66.80;;;;;;9868248;29;20552;-78
2021/04/17 03:32:35;;;;;;;20.95;12.57;;;7.20;67.70;;;;;;9867901;29;20048;-79
2021/04/17 03:37:31;;;;;;;24.95;13.35;;;8.40;67.40;;;;;;9867811;29;20462;-78
2021/04/17 03:42:25;;;;;;;26.88;14.60;;;7.80;67.70;;;;;;9867131;29;20494;-79
2021/04/17 03:47:21;;;;;;;24.65;13.32;;;;;;;;;;9850759;29;20102;-79
2021/04/17 03:52:14;;;;;;;23.48;12.55;;;7.20;68.40;;;;;;9849674;29;20654;-79
2021/04/17 03:57:10;;;;;;;24.92;13.10;;;8.60;68.20;;;;;;9865529;29;20087;-79
2021/04/17 04:02:04;;;;;;;21.80;12.77;;;8.50;68.10;;;;;;9866544;29;20087;-80
2021/04/17 04:06:59;;;;;;;23.52;13.20;;;8.00;67.70;;;;;;9849214;29;20083;-78
2021/04/17 04:11:54;;;;;;;28.00;15.32;;;8.50;68.10;;;;;;9865303;29;20402;-78
2021/04/17 04:16:47;;;;;;;25.35;14.63;;;10.20;70.20;;;;;;9864927;29;20044;-78
2021/04/17 04:21:41;;;;;;;25.75;13.93;;;9.00;69.70;;;;;;9864926;29;20079;-80
2021/04/17 04:26:37;;;;;;;23.42;13.32;;;9.70;70.20;;;;;;9864603;29;20118;-79
2021/04/17 04:31:31;;;;;;;24.35;13.48;;;8.20;68.10;;;;;;9848503;29;20083;-79
2021/04/17 04:36:25;;;;;;;23.42;12.95;;;7.20;68.90;;;;;;9864518;29;20083;-79
2021/04/17 04:41:19;;;;;;;26.05;13.85;;;7.50;69.30;;;;;;9865520;29;20465;-80
2021/04/17 04:46:14;;;;;;;27.67;14.25;;;7.60;68.10;;;;;;9865566;29;20094;-79
2021/04/17 04:51:10;;;;;;;23.33;13.35;;;6.70;68.80;;;;;;9848232;29;20090;-80
2021/04/17 04:56:06;;;;;;;24.98;13.82;;;8.20;68.30;;;;;;9865247;29;20091;-80
2021/04/17 05:00:59;;;;;;;27.42;15.32;;;7.80;69.60;;;;;;9864079;29;20091;-78
2021/04/17 05:05:54;;;;;;;25.95;14.38;;;7.70;69.70;;;;;;9863521;29;20083;-79
2021/04/17 05:10:48;;;;;;;24.25;14.48;;;7.50;69.40;;;;;;9864957;29;20082;-79
2021/04/17 05:15:41;;;;;;;26.75;14.52;;;8.20;68.50;;;;;;9869283;29;20059;-79
2021/04/17 05:20:38;;;;;;;28.60;15.38;;;7.50;69.10;;;;;;9873045;29;20086;-81
2021/04/17 05:25:33;;;;;;;27.27;15.23;;;7.70;67.80;;;;;;9871361;29;20086;-80
2021/04/17 05:30:27;;;;;;;26.38;14.93;;;9.90;70.20;;;;;;9870875;29;20082;-79
2021/04/17 05:35:21;;;;;;;29.83;15.82;;;10.50;70.20;;;;;;9871920;29;20092;-80
2021/04/17 05:40:15;;;;;;;27.70;14.52;;;6.90;67.80;;;;;;9871684;29;20097;-80
2021/04/17 05:45:15;;;;;;;27.35;15.45;;;7.80;66.90;;;;;;9871680;29;20075;-79
2021/04/17 05:50:10;;;;;;;26.15;13.48;;;8.20;67.20;;;;;;9871217;29;20499;-79
2021/04/17 05:55:05;;;;;;;27.52;13.63;;;10.40;69.30;;;;;;9871319;29;20505;-79
2021/04/17 05:59:58;;;;;;;28.23;14.60;;;10.10;68.90;;;;;;9871169;29;20087;-79
2021/04/17 06:04:53;;;;;;;25.20;14.02;;;9.60;68.10;;;;;;9869760;28;20079;-79
2021/04/17 06:09:48;;;;;;;29.73;15.02;;;8.70;67.40;;;;;;9854060;29;20059;-79
2021/04/17 06:14:42;;;;;;;25.30;14.65;;;;;;;;;;9870405;29;20087;-79
2021/04/17 06:19:36;;;;;;;27.80;15.15;;;10.50;68.40;;;;;;9870080;29;20506;-79
2021/04/17 06:24:32;;;;;;;26.88;14.40;;;8.30;65.60;;;;;;9870436;29;20094;-79
2021/04/17 06:29:26;;;;;;;31.38;15.40;;;;;;;;;;9868170;29;20055;-77
2021/04/17 06:34:20;;;;;;;26.15;15.18;;;9.60;67.10;;;;;;9870052;29;20062;-79
2021/04/17 06:39:14;;;;;;;29.45;15.88;;;9.20;66.70;;;;;;9868937;28;20055;-78
2021/04/17 06:44:10;;;;;;;27.25;15.43;;;10.10;67.00;;;;;;9852490;29;20087;-80
2021/04/17 06:49:09;;;;;;;27.75;14.82;;;9.90;66.70;;;;;;9868313;29;20071;-79
2021/04/17 06:54:04;;;;;;;27.60;15.27;;;9.00;66.00;;;;;;9869053;29;20093;-80
2021/04/17 06:58:59;;;;;;;28.10;16.05;;;11.10;66.30;;;;;;9852218;29;20490;-78
2021/04/17 07:03:55;;;;;;;30.77;16.20;;;10.70;66.00;;;;;;9851964;29;20109;-78
2021/04/17 07:08:49;;;;;;;29.33;16.20;;;8.30;64.50;;;;;;9867447;29;20462;-79
2021/04/17 07:14:04;;;;;;;27.55;16.05;;;9.60;65.00;;;;;;9868509;29;20090;-79
2021/04/17 07:18:59;;;;;;;24.75;15.35;;;;;;;;;;9867965;29;20082;-79
2021/04/17 07:23:54;;;;;;;27.67;15.63;;;11.00;65.40;;;;;;9867630;29;20087;-79
2021/04/17 07:29:06;;;;;;;23.02;12.68;;;10.60;64.60;;;;;;9851005;29;20422;-80
2021/04/17 07:34:14;;;;;;;17.63;9.00;;;10.20;63.30;;;;;;9867571;29;20087;-79
2021/04/17 07:39:27;;;;;;;23.40;11.32;;;11.20;63.70;;;;;;9867599;29;20079;-80
2021/04/17 07:44:31;;;;;;;17.92;9.73;;;9.50;61.50;;;;;;9867001;29;20090;-78
2021/04/17 07:49:26;;;;;;;18.70;9.88;;;10.00;60.40;;;;;;9867014;29;20086;-77
2021/04/17 07:54:20;;;;;;;22.05;11.95;;;9.80;61.80;;;;;;9878906;29;20075;-77
2021/04/17 07:59:21;;;;;;;20.80;11.55;;;10.00;60.20;;;;;;9867792;29;20379;-81
2021/04/17 08:04:23;;;;;;;51.80;17.20;;;10.00;62.30;;;;;;9867598;29;20087;-80
2021/04/17 08:09:20;;;;;;;23.60;11.88;;;9.40;61.70;;;;;;9864151;29;20087;-78
2021/04/17 08:14:13;;;;;;;22.65;12.57;;;12.00;62.20;;;;;;9865743;29;20580;-79
2021/04/17 08:19:07;;;;;;;22.13;12.45;;;;;;;;;;9861515;29;20444;-79
2021/04/17 08:24:01;;;;;;;18.95;10.55;;;10.50;59.40;;;;;;9864464;29;20082;-77
2021/04/17 08:28:56;;;;;;;20.15;10.98;;;11.90;61.30;;;;;;9865114;29;20083;-80
2021/04/17 08:34:11;;;;;;;20.35;11.63;;;11.90;59.30;;;;;;9865484;29;20409;-81
2021/04/17 08:39:06;;;;;;;20.45;11.88;;;11.20;59.00;;;;;;9861078;29;20521;-80
2021/04/17 08:44:24;;;;;;;20.73;12.40;;;12.10;59.60;;;;;;9865201;29;20502;-78
2021/04/17 08:49:27;;;;;;;20.95;12.05;;;10.70;58.20;;;;;;9881566;29;20047;-84
2021/04/17 08:54:27;;;;;;;19.00;10.95;;;10.90;60.60;;;;;;9864607;29;20071;-84
2021/04/17 08:59:28;;;;;;;20.85;12.45;;;10.70;59.20;;;;;;9865437;29;20067;-80
2021/04/17 09:04:23;;;;;;;19.67;10.88;;;10.60;58.90;;;;;;9864580;29;20470;-81
2021/04/17 09:09:39;;;;;;;16.80;10.05;;;12.30;59.40;;;;;;9862736;29;20072;-82
2021/04/17 09:14:58;;;;;;;20.15;11.38;;;12.20;58.90;;;;;;9857357;28;20087;-81
2021/04/17 09:19:52;;;;;;;19.25;11.25;;;12.50;59.80;;;;;;9862167;29;20083;-82
2021/04/17 09:24:47;;;;;;;18.70;10.82;;;;;;;;;;9864277;29;20087;-80
2021/04/17 09:29:40;;;;;;;19.73;11.52;;;12.30;59.30;;;;;;9864207;29;20043;-80
2021/04/17 09:34:39;;;;;;;19.05;11.40;;;12.40;59.40;;;;;;9878802;29;20051;-81
2021/04/17 09:39:33;;;;;;;16.50;9.98;;;12.10;57.80;;;;;;9863808;29;20058;-80
2021/04/17 09:44:44;;;;;;;16.30;10.10;;;12.00;57.50;;;;;;9864449;29;20079;-82
2021/04/17 09:49:42;;;;;;;17.35;10.18;;;13.50;58.60;;;;;;9864017;29;20075;-81
2021/04/17 09:54:36;;;;;;;17.83;10.63;;;12.70;57.90;;;;;;9863620;29;20067;-80
2021/04/17 09:59:30;;;;;;;17.70;10.25;;;12.70;57.60;;;;;;9863570;29;20083;-79
2021/04/17 10:04:45;;;;;;;18.42;10.60;;;13.30;57.50;;;;;;9852130;29;20529;-80
2021/04/17 10:09:40;;;;;;;19.88;10.40;;;;;;;;;;9871197;29;20083;-80
2021/04/17 10:14:34;;;;;;;17.48;9.75;;;12.20;55.90;;;;;;9870669;29;20095;-82
2021/04/17 10:19:31;;;;;;;19.38;11.05;;;;;;;;;;9870242;29;20055;-80
2021/04/17 10:24:28;;;;;;;18.38;10.52;;;;;;;;;;9852943;29;20105;-82
2021/04/17 10:29:35;;;;;;;14.77;8.43;;;13.60;56.20;;;;;;9869695;29;20098;-80
2021/04/17 10:34:30;;;;;;;16.70;9.85;;;12.10;54.70;;;;;;9869159;29;20592;-81
2021/04/17 10:39:24;;;;;;;17.58;10.15;;;13.90;54.50;;;;;;9821170;29;20056;-80
2021/04/17 10:44:19;;;;;;;14.57;8.63;;;13.40;53.90;;;;;;9869996;29;20079;-80
2021/04/17 10:49:27;;;;;;;15.48;9.45;;;12.60;53.60;;;;;;9836714;29;20086;-80
2021/04/17 10:54:22;;;;;;;16.17;9.68;;;15.00;55.80;;;;;;9865225;29;20095;-80
2021/04/17 10:59:15;;;;;;;16.48;9.27;;;;;;;;;;9883521;29;20051;-81
2021/04/17 11:04:09;;;;;;;19.23;10.32;;;13.70;54.90;;;;;;9867926;29;20090;-81
2021/04/17 11:09:08;;;;;;;15.85;9.50;;;11.70;53.20;;;;;;9867925;29;20086;-81
2021/04/17 11:14:02;;;;;;;20.35;10.77;;;;;;;;;;9867923;29;20087;-82
2021/04/17 11:18:56;;;;;;;15.75;9.88;;;12.40;54.70;;;;;;9868207;29;20083;-82
2021/04/17 11:23:54;;;;;;;19.85;10.20;;;11.90;53.40;;;;;;9867989;29;20478;-81
2021/04/17 11:28:51;;;;;;;17.88;10.00;;;11.70;53.40;;;;;;9868208;29;20075;-81
2021/04/17 11:33:47;;;;;;;18.85;10.68;;;12.50;54.90;;;;;;9880727;29;20047;-81
2021/04/17 11:38:45;;;;;;;17.80;10.52;;;;;;;;;;9865545;29;20094;-80
2021/04/17 11:43:39;;;;;;;17.48;9.82;;;11.80;53.70;;;;;;9866042;29;20083;-80
2021/04/17 11:48:35;;;;;;;15.90;9.45;;;;;;;;;;9866896;29;20094;-81
2021/04/17 11:53:29;;;;;;;16.77;9.82;;;13.80;54.20;;;;;;9867665;29;20407;-81
2021/04/17 11:58:23;;;;;;;15.73;9.15;;;15.20;55.60;;;;;;9849397;29;20087;-79
2021/04/17 12:03:22;;;;;;;16.00;9.73;;;;;;;;;;9849456;29;20101;-81
2021/04/17 12:08:18;;;;;;;16.55;9.25;;;11.80;53.10;;;;;;9848794;29;20083;-81
2021/04/17 12:13:12;;;;;;;15.38;9.40;;;12.50;53.70;;;;;;9865919;29;20064;-80
2021/04/17 12:18:07;;;;;;;18.95;9.75;;;12.40;53.90;;;;;;9864238;29;20079;-80
2021/04/17 12:23:01;;;;;;;15.82;9.27;;;14.60;53.70;;;;;;9848885;29;20098;-81
2021/04/17 12:27:56;;;;;;;17.00;9.25;;;;;;;;;;9864890;29;20384;-82
2021/04/17 12:32:50;;;;;;;15.40;9.75;;;12.00;52.30;;;;;;9865676;29;20083;-80
2021/04/17 12:37:44;;;;;;;14.07;9.15;;;13.90;53.00;;;;;;9866903;29;20047;-81
2021/04/17 12:42:38;;;;;;;14.95;9.02;;;14.80;53.20;;;;;;9866390;29;20130;-80
2021/04/17 12:47:34;;;;;;;14.65;8.90;;;15.00;54.20;;;;;;9854097;29;20052;-81
2021/04/17 12:52:32;;;;;;;13.75;8.20;;;13.70;53.20;;;;;;9866243;29;20056;-80
2021/04/17 12:57:26;;;;;;;15.23;8.10;;;14.10;52.50;;;;;;9864610;29;20083;-82
2021/04/17 13:02:20;;;;;;;17.02;9.65;;;14.70;53.60;;;;;;9864854;29;20083;-80
2021/04/17 13:07:15;;;;;;;14.27;8.18;;;14.30;52.20;;;;;;9864405;29;20083;-81
2021/04/17 13:12:09;;;;;;;16.35;8.75;;;14.20;53.20;;;;;;9863872;29;20051;-82
2021/04/17 13:17:04;;;;;;;14.85;8.18;;;15.10;52.40;;;;;;9864745;29;20363;-81
2021/04/17 13:21:58;;;;;;;15.25;8.48;;;14.50;52.10;;;;;;9846511;29;20099;-82
2021/04/17 13:26:53;;;;;;;15.70;8.45;;;14.40;52.90;;;;;;9864392;29;20048;-80
2021/04/17 13:31:47;;;;;;;19.50;8.90;;;14.50;51.90;;;;;;9864869;29;20158;-81
2021/04/17 13:36:41;;;;;;;12.82;8.55;;;13.80;51.50;;;;;;9850953;29;20090;-80
2021/04/17 13:41:35;;;;;;;14.55;8.63;;;15.20;53.50;;;;;;9871337;29;20176;-81
2021/04/17 13:46:31;;;;;;;20.80;8.75;;;14.60;53.20;;;;;;9871093;29;20087;-80
2021/04/17 13:51:25;;;;;;;15.18;9.02;;;13.90;52.10;;;;;;9861014;29;20482;-82
2021/04/17 13:56:39;;;;;;;15.45;9.65;;;15.30;53.70;;;;;;9865629;29;20086;-81
2021/04/17 14:01:37;;;;;;;15.63;8.88;;;14.10;52.20;;;;;;9869120;29;20048;-79
2021/04/17 14:06:31;;;;;;;14.10;8.90;;;14.40;53.20;;;;;;9870569;29;20095;-81
2021/04/17 14:11:25;;;;;;;14.80;9.55;;;13.50;51.80;;;;;;9853341;29;20501;-82
2021/04/17 14:16:19;;;;;;;14.45;9.02;;;14.80;52.50;;;;;;9870664;29;20086;-82
2021/04/17 14:21:15;;;;;;;14.75;8.77;;;13.80;51.90;;;;;;9869858;29;20056;-81
2021/04/17 14:26:09;;;;;;;15.52;8.95;;;14.10;52.30;;;;;;9869915;29;20090;-80
2021/04/17 14:31:03;;;;;;;14.10;9.15;;;14.90;53.70;;;;;;9852740;29;20495;-80
2021/04/17 14:35:59;;;;;;;14.90;8.95;;;13.90;52.40;;;;;;9854137;29;20055;-80
2021/04/17 14:40:54;;;;;;;15.30;9.68;;;14.30;53.30;;;;;;9871061;29;20478;-81
2021/04/17 14:45:48;;;;;;;16.25;10.27;;;14.30;52.50;;;;;;9853024;29;20442;-81
2021/04/17 14:50:43;;;;;;;17.60;10.48;;;14.00;52.50;;;;;;9850787;29;20052;-80
2021/04/17 14:55:38;;;;;;;20.20;11.25;;;12.30;52.60;;;;;;9852015;29;20533;-81
2021/04/17 15:00:33;;;;;;;19.90;11.45;;;13.30;52.40;;;;;;9870794;29;20051;-81
2021/04/17 15:05:30;;;;;;;17.08;11.32;;;;;;;;;;9870180;29;20083;-81
2021/04/17 15:10:23;;;;;;;18.20;10.88;;;14.40;53.90;;;;;;9870489;29;20047;-81
2021/04/17 15:15:18;;;;;;;20.95;12.40;;;;;;;;;;9869197;29;20102;-81
2021/04/17 15:20:15;;;;;;;21.45;12.45;;;14.40;53.90;;;;;;9866188;29;20064;-81
2021/04/17 15:25:10;;;;;;;25.92;13.75;;;;;;;;;;9850635;29;20083;-81
2021/04/17 15:30:06;;;;;;;22.23;12.85;;;12.70;53.10;;;;;;9867398;29;20510;-80
2021/04/17 15:35:00;;;;;;;19.25;12.02;;;13.50;52.70;;;;;;9835983;29;20091;-81
2021/04/17 15:39:57;;;;;;;21.40;13.05;;;14.80;53.30;;;;;;9869678;29;20055;-81
2021/04/17 15:50:04;;;;;;;21.70;13.13;;;14.30;53.70;;;;;;9866116;29;20055;-82
2021/04/17 15:55:02;;;;;;;18.13;11.77;;;;;;;;;;9868185;29;20055;-81
2021/04/17 16:15:43;;;;;;;21.70;13.25;;;13.90;53.30;;;;;;9867082;29;20506;-81
2021/04/17 16:20:44;;;;;;;21.23;13.63;;;13.60;53.60;;;;;;9860481;29;20071;-80
2021/04/17 16:25:39;;;;;;;20.88;13.57;;;13.60;53.60;;;;;;9866376;29;20087;-82
2021/04/17 16:30:35;;;;;;;18.38;12.55;;;;;;;;;;9848518;29;20462;-80
2021/04/17 16:35:31;;;;;;;21.33;13.55;;;13.60;53.80;;;;;;9848512;29;20083;-80
2021/04/17 16:40:26;;;;;;;20.08;12.60;;;13.80;54.10;;;;;;9848990;29;20090;-80
2021/04/17 16:45:23;;;;;;;23.05;13.55;;;13.30;53.70;;;;;;9866426;29;20083;-79
2021/04/17 16:50:17;;;;;;;21.48;13.65;;;13.00;53.50;;;;;;9866315;29;20091;-81
2021/04/17 16:55:17;;;;;;;19.33;12.33;;;14.70;55.20;;;;;;9860290;29;20083;-81
2021/04/17 17:00:15;;;;;;;18.65;12.35;;;;;;;;;;9865189;29;20493;-80
2021/04/17 17:05:15;;;;;;;19.33;12.50;;;11.80;53.50;;;;;;9865555;29;20494;-81
2021/04/17 17:10:12;;;;;;;20.10;13.13;;;13.60;53.80;;;;;;9849102;29;20070;-80
2021/04/17 17:15:08;;;;;;;19.38;11.90;;;11.90;54.00;;;;;;9873407;29;20059;-81
2021/04/17 17:20:02;;;;;;;18.38;12.20;;;13.60;54.10;;;;;;9872628;29;20098;-82
2021/04/17 17:25:00;;;;;;;20.20;13.07;;;13.30;53.90;;;;;;9872315;29;20090;-80
2021/04/17 17:29:55;;;;;;;20.38;13.10;;;13.40;53.90;;;;;;9872562;29;20518;-80
2021/04/17 17:34:49;;;;;;;20.38;12.55;;;14.60;55.50;;;;;;9872345;29;20083;-81
2021/04/17 17:39:43;;;;;;;19.75;12.80;;;12.00;54.20;;;;;;9871811;29;20090;-81
2021/04/17 17:44:39;;;;;;;19.15;12.55;;;13.40;54.10;;;;;;9855094;29;20093;-80
2021/04/17 17:49:34;;;;;;;19.77;12.40;;;;;;;;;;9870919;29;20087;-80
2021/04/17 17:54:28;;;;;;;22.20;12.60;;;12.00;54.20;;;;;;9872143;29;20052;-80
2021/04/17 17:59:23;;;;;;;19.77;12.02;;;12.40;54.40;;;;;;9854252;29;20090;-80
2021/04/17 18:04:18;;;;;;;20.58;12.00;;;13.60;54.30;;;;;;9853926;29;20105;-80
2021/04/17 18:09:13;;;;;;;18.83;12.15;;;;;;;;;;9872059;29;20083;-80
2021/04/17 18:14:06;;;;;;;22.40;13.35;;;12.20;53.60;;;;;;9871873;29;20075;-81
2021/04/17 18:19:02;;;;;;;31.23;15.63;;;11.70;53.40;;;;;;9870862;29;20056;-80
2021/04/17 18:23:57;;;;;;;21.25;12.00;;;15.40;55.90;;;;;;9868016;29;20079;-80
2021/04/17 18:28:52;;;;;;;19.10;12.00;;;11.80;54.00;;;;;;9870082;29;20046;-81
2021/04/17 18:33:47;;;;;;;21.30;13.48;;;;;;;;;;9868723;28;20422;-80
2021/04/17 18:38:42;;;;;;;20.17;12.27;;;11.80;53.70;;;;;;9869869;29;20494;-80
2021/04/17 18:43:37;;;;;;;18.30;11.25;;;13.30;53.70;;;;;;9852771;29;20083;-82
2021/04/17 18:48:33;;;;;;;19.50;11.80;;;13.40;53.70;;;;;;9870196;29;20083;-81
2021/04/17 18:53:27;;;;;;;19.30;12.15;;;12.90;54.10;;;;;;9827921;29;20074;-80
2021/04/17 18:58:22;;;;;;;23.55;13.15;;;14.10;53.90;;;;;;9873306;29;20058;-80
2021/04/17 19:03:17;;;;;;;22.38;12.43;;;11.80;53.60;;;;;;9868980;29;20079;-81
2021/04/17 19:08:11;;;;;;;20.63;12.50;;;12.70;53.90;;;;;;9867621;29;20087;-81
2021/04/17 19:13:05;;;;;;;19.40;11.90;;;15.10;55.00;;;;;;9868784;29;20087;-80
2021/04/17 19:18:02;;;;;;;21.50;11.88;;;13.90;53.60;;;;;;9868775;29;20544;-79
2021/04/17 19:23:01;;;;;;;21.52;12.35;;;12.00;52.70;;;;;;9873615;29;20087;-80
2021/04/17 19:27:57;;;;;;;18.65;12.10;;;13.40;53.40;;;;;;9867099;29;20079;-79
2021/04/17 19:32:52;;;;;;;19.20;12.23;;;12.70;53.90;;;;;;9868045;29;20087;-80
2021/04/17 19:37:51;;;;;;;22.00;11.95;;;15.30;55.10;;;;;;9867168;29;20506;-80
2021/04/17 19:42:47;;;;;;;17.98;11.30;;;11.70;53.00;;;;;;9867427;29;20051;-81
2021/04/17 19:47:41;;;;;;;18.80;11.38;;;13.20;52.90;;;;;;9865840;29;20079;-81
2021/04/17 19:52:35;;;;;;;19.13;12.00;;;13.50;53.00;;;;;;9867142;29;20090;-80
2021/04/17 19:57:31;;;;;;;20.38;12.30;;;13.60;53.20;;;;;;9850535;29;20090;-81
2021/04/17 20:02:28;;;;;;;18.42;11.02;;;14.90;54.80;;;;;;9866547;29;20099;-81
2021/04/17 20:07:23;;;;;;;20.58;11.65;;;12.20;53.50;;;;;;9867408;29;20150;-81
2021/04/17 20:12:18;;;;;;;19.70;11.63;;;14.00;54.60;;;;;;9868077;28;20087;-81
2021/04/17 20:17:13;;;;;;;19.63;12.55;;;;;;;;;;9877731;29;20043;-80
2021/04/17 20:22:12;;;;;;;18.83;11.98;;;12.80;53.30;;;;;;9849179;29;20090;-80
2021/04/17 20:27:07;;;;;;;21.00;12.88;;;13.00;53.60;;;;;;9849201;29;20094;-80
2021/04/17 20:32:00;;;;;;;21.90;13.60;;;11.60;53.40;;;;;;9867285;29;20094;-80
2021/04/17 20:36:56;;;;;;;24.02;13.82;;;;;;;;;;9865039;29;20428;-80
2021/04/17 20:41:52;;;;;;;21.23;13.95;;;12.50;55.30;;;;;;9870033;29;20056;-80
2021/04/17 20:46:46;;;;;;;23.52;14.70;;;11.80;54.80;;;;;;9864342;29;20079;-80
2021/04/17 20:51:41;;;;;;;22.77;13.55;;;13.00;55.80;;;;;;9848377;29;20071;-80
2021/04/17 20:56:35;;;;;;;24.55;14.18;;;13.00;56.90;;;;;;9849065;29;20090;-81
2021/04/17 21:01:30;;;;;;;23.15;13.68;;;11.50;55.50;;;;;;9832757;29;20060;-80
2021/04/17 21:06:44;;;;;;;24.92;14.75;;;;;;;;;;9865759;29;20477;-79
2021/04/17 21:11:38;;;;;;;23.50;14.85;;;14.00;56.90;;;;;;9848568;29;20458;-79
2021/04/17 21:16:33;;;;;;;22.73;13.82;;;12.00;56.80;;;;;;9864138;29;20082;-80
2021/04/17 21:21:27;;;;;;;22.67;14.30;;;;;;;;;;9865351;29;20090;-81
2021/04/17 21:26:21;;;;;;;22.40;13.48;;;11.60;56.50;;;;;;9848468;29;20087;-81
2021/04/17 21:31:16;;;;;;;30.73;14.98;;;13.30;57.30;;;;;;9863974;29;20086;-81
2021/04/17 21:36:14;;;;;;;28.27;15.23;;;12.90;57.50;;;;;;9848243;29;20064;-80
2021/04/17 21:41:08;;;;;;;23.27;14.52;;;13.70;58.50;;;;;;9848356;29;20083;-80
2021/04/17 21:46:02;;;;;;;23.42;14.85;;;11.60;58.10;;;;;;9872206;29;20055;-79
2021/04/17 21:50:56;;;;;;;26.75;15.32;;;13.00;58.20;;;;;;9863380;29;20067;-79
2021/04/17 21:55:52;;;;;;;24.00;14.65;;;13.70;58.80;;;;;;9848082;29;20056;-80
2021/04/17 22:00:50;;;;;;;24.88;14.82;;;11.90;58.00;;;;;;9871557;29;20086;-80
2021/04/17 22:05:46;;;;;;;26.27;15.02;;;12.20;58.90;;;;;;9871298;29;20089;-79
2021/04/17 22:10:41;;;;;;;24.60;15.13;;;11.60;58.30;;;;;;9869881;29;20091;-80
2021/04/17 22:15:36;;;;;;;25.48;15.77;;;13.60;58.90;;;;;;9871287;29;20071;-80
2021/04/17 22:20:31;;;;;;;30.00;16.38;;;12.00;58.80;;;;;;9869831;29;20207;-81
2021/04/17 22:25:25;;;;;;;27.77;16.35;;;13.90;59.10;;;;;;9853109;29;20102;-81
2021/04/17 22:30:21;;;;;;;30.67;17.55;;;11.40;58.30;;;;;;9869199;29;20056;-80
2021/04/17 22:35:20;;;;;;;25.60;15.93;;;12.50;59.10;;;;;;9870157;29;20469;-80
2021/04/17 22:40:16;;;;;;;26.25;14.75;;;12.50;59.40;;;;;;9853292;29;20087;-80
2021/04/17 22:45:12;;;;;;;26.42;15.63;;;11.60;59.20;;;;;;9868563;28;20239;-80
2021/04/17 22:50:08;;;;;;;28.17;16.50;;;11.50;59.30;;;;;;9869918;29;20047;-80
2021/04/17 22:55:05;;;;;;;26.77;16.33;;;11.70;60.20;;;;;;9872765;28;20063;-80
2021/04/17 22:59:59;;;;;;;28.15;15.68;;;13.60;60.80;;;;;;9852513;29;20078;-80
2021/04/17 23:04:53;;;;;;;24.15;14.65;;;13.50;60.90;;;;;;9853137;29;20097;-79
2021/04/17 23:09:48;;;;;;;27.00;16.48;;;10.60;59.30;;;;;;9867317;29;20088;-79
2021/04/17 23:14:43;;;;;;;25.98;15.98;;;10.60;59.20;;;;;;9851879;29;20051;-80
2021/04/17 23:19:37;;;;;;;28.20;16.70;;;12.80;61.30;;;;;;9851336;29;20087;-80
2021/04/17 23:24:33;;;;;;;29.20;16.85;;;;;;;;;;9851409;29;20530;-81
2021/04/17 23:29:29;;;;;;;30.92;18.58;;;13.30;61.40;;;;;;9868437;29;20087;-81
2021/04/17 23:34:24;;;;;;;32.45;18.42;;;11.80;60.50;;;;;;9866597;29;20494;-79
2021/04/17 23:39:19;;;;;;;28.50;17.05;;;11.30;60.40;;;;;;9867994;29;20509;-80
2021/04/17 23:44:14;;;;;;;28.38;17.25;;;11.80;60.60;;;;;;9867497;29;20514;-80
2021/04/17 23:49:08;;;;;;;29.95;16.48;;;11.20;60.30;;;;;;9878145;29;20055;-80
2021/04/17 23:54:04;;;;;;;29.35;17.27;;;12.10;60.90;;;;;;9860921;29;20194;-79
2021/04/17 23:58:58;;;;;;;32.92;17.67;;;12.60;62.00;;;;;;9867268;29;20086;-80
